Airfield :







YOU CAN JOIN US ON...

 
LOGIN :

Register | Disclaimer

   EN    FR    IT 

 









Legend :    VFR   Marginal VFR   IFR   Intensive IFR   Very Intensive IFR
Visi :
Ceiling :
>= 8 km
>= 3000ft
5 to 8 km
1000 to 3000 ft
1500m to 5 km
500 to 1000 ft
800 to 1500m
200 to 500 ft
< 800m
< 200 ft
Symbols :   Thunderstorms  Fog  Heavy snow  Heavy precipitations  Wind > 20 kt







- Airport Elevation : 271 ft


KBAF - Barnes Municipal

CURRENT METAR :
  • 160253Z AUTO 00000KT 10SM CLR 15/14 A3006 RMK AO2 SLP177 T01500139 53000 $

EXPIRED METARs :
  • 160153Z 00000KT 10SM CLR 16/14 A3006 RMK AO2 SLP177 T01560144 $
  • 160053Z 00000KT 10SM CLR 17/16 A3005 RMK AO2 SLP176 T01720156 $

TAF KBAF
Valid from the 16 at 00:00 until the 17 at 00:00 UTC


152327Z 1600/1624 27003KT P6SM SCT250
FM160200 30003KT P6SM SCT250
FM161100 36003KT P6SM BKN060
FM161400 02003KT P6SM BKN045
FM161700 35003KT P6SM BKN045
FM162100 32005KT P6SM SCT250
No reported NOTAMs for that airfield.



MET'MAP, your aeronautical weather chart ! - Copyright ORBIFLY December 2007 - Disclaimer

ORBIFLY MET'MAP TEAM :

Programming & Development : Alexandra Zaïnal
Concept & Development : Baudouin d'Aumeries
Co-Development & Prog : Marc-Olivier Méhu
Technical & hardware support : Manuel Goepfert

Contact : metmap@orbifly.com




SOURCES & CREDITS :

   NOAA